createdAt,value
2018-04-01T00:01:28.223Z,10.93
2018-04-01T00:03:59.192Z,9.65
2018-04-01T00:06:30.236Z,10.30
2018-04-01T00:09:01.287Z,9.88
2018-04-01T00:11:32.241Z,11.05
2018-04-01T00:14:03.212Z,13.30
2018-04-01T00:16:34.209Z,10.48
2018-04-01T00:19:05.951Z,10.05
2018-04-01T00:21:36.984Z,11.55
2018-04-01T00:24:07.951Z,11.88
2018-04-01T00:26:38.997Z,11.20
2018-04-01T00:29:09.955Z,11.55
2018-04-01T00:31:40.969Z,12.52
2018-04-01T00:34:11.918Z,11.75
2018-04-01T00:36:42.902Z,14.05
2018-04-01T00:39:13.873Z,10.82
2018-04-01T00:41:44.819Z,10.95
2018-04-01T00:44:15.784Z,10.75
2018-04-01T00:46:46.731Z,11.70
2018-04-01T00:49:17.721Z,10.73
2018-04-01T00:51:48.666Z,11.48
2018-04-01T00:54:20.403Z,10.32
2018-04-01T00:56:51.363Z,11.65
2018-04-01T00:59:22.402Z,11.18
2018-04-01T01:01:53.340Z,10.30
2018-04-01T01:04:24.350Z,11.48
2018-04-01T01:06:56.055Z,10.77
2018-04-01T01:09:27.032Z,11.40
2018-04-01T01:11:57.985Z,11.02
2018-04-01T01:14:28.946Z,10.85
2018-04-01T01:16:59.895Z,10.98
2018-04-01T01:19:30.856Z,10.65
2018-04-01T01:22:01.812Z,11.77
2018-04-01T01:24:32.761Z,11.75
2018-04-01T01:27:03.773Z,11.05
2018-04-01T01:29:34.885Z,10.50
2018-04-01T01:32:05.774Z,11.05
2018-04-01T01:34:36.740Z,11.90
2018-04-01T01:37:07.695Z,11.52
2018-04-01T01:39:38.661Z,12.77
2018-04-01T01:42:09.619Z,11.35
2018-04-01T01:44:40.576Z,12.60
2018-04-01T01:47:11.525Z,12.30
2018-04-01T01:49:42.510Z,12.05
2018-04-01T01:52:13.474Z,13.43
2018-04-01T01:54:44.415Z,11.52
2018-04-01T01:57:15.364Z,12.30
2018-04-01T01:59:46.331Z,11.55
2018-04-01T02:02:18.052Z,11.52
2018-04-01T02:04:49.016Z,13.07
2018-04-01T02:07:19.965Z,11.82
2018-04-01T02:09:51.023Z,11.07
2018-04-01T02:12:21.970Z,11.48
2018-04-01T02:14:52.932Z,12.13
2018-04-01T02:17:23.880Z,12.70
2018-04-01T02:19:54.937Z,11.40
2018-04-01T02:22:25.884Z,9.35
2018-04-01T02:24:56.848Z,8.85
2018-04-01T02:27:28.558Z,4.22
2018-04-01T02:30:00.268Z,3.60
2018-04-01T02:32:31.215Z,2.55
2018-04-01T02:35:02.172Z,2.55
2018-04-01T02:37:33.115Z,4.50
2018-04-01T02:40:04.076Z,2.87
2018-04-01T02:42:35.018Z,4.47
2018-04-01T02:45:05.991Z,2.97
2018-04-01T02:47:36.939Z,3.10
2018-04-01T02:50:07.910Z,4.43
2018-04-01T02:52:38.843Z,6.80
2018-04-01T02:55:09.893Z,7.95
2018-04-01T02:57:40.841Z,6.25
2018-04-01T03:00:11.820Z,6.43
2018-04-01T03:02:42.755Z,6.35
2018-04-01T03:05:13.720Z,6.05
2018-04-01T03:07:44.688Z,6.93
2018-04-01T03:10:15.643Z,6.57
2018-04-01T03:12:46.587Z,7.10
2018-04-01T03:15:17.568Z,9.07
2018-04-01T03:17:48.540Z,7.22
2018-04-01T03:20:20.259Z,7.85
2018-04-01T03:22:51.203Z,8.57
2018-04-01T03:25:22.159Z,8.63
2018-04-01T03:27:53.144Z,9.07
2018-04-01T03:30:24.110Z,9.07
2018-04-01T03:32:55.839Z,8.77
2018-04-01T03:35:26.897Z,9.77
2018-04-01T03:37:57.836Z,10.00
2018-04-01T03:40:28.820Z,8.68
2018-04-01T03:42:59.763Z,8.10
2018-04-01T03:45:30.735Z,10.68
2018-04-01T03:48:01.844Z,8.65
2018-04-01T03:50:32.784Z,8.93
2018-04-01T03:53:03.732Z,8.95
2018-04-01T03:55:35.460Z,9.85
2018-04-01T03:58:06.475Z,8.85
2018-04-01T04:00:37.426Z,9.02
2018-04-01T04:03:08.371Z,10.15
2018-04-01T04:05:39.343Z,7.93
2018-04-01T04:08:10.292Z,10.18
2018-04-01T04:10:42.175Z,8.63
2018-04-01T04:13:13.103Z,9.13
2018-04-01T04:15:44.064Z,8.75
2018-04-01T04:18:15.019Z,9.63
2018-04-01T04:20:45.987Z,9.73
2018-04-01T04:23:16.931Z,9.48
2018-04-01T04:25:47.897Z,8.90
2018-04-01T04:28:18.837Z,9.80
2018-04-01T04:30:49.803Z,9.98
2018-04-01T04:33:20.763Z,9.68
2018-04-01T04:35:51.712Z,8.05
2018-04-01T04:38:22.659Z,9.07
2018-04-01T04:40:53.616Z,7.55
2018-04-01T04:43:24.574Z,9.48
2018-04-01T04:45:55.522Z,7.57
2018-04-01T04:48:26.464Z,8.02
2018-04-01T04:50:57.433Z,6.30
2018-04-01T04:53:28.372Z,7.12
2018-04-01T04:55:59.332Z,8.10
2018-04-01T04:58:31.043Z,7.28
2018-04-01T05:01:02.014Z,6.82
2018-04-01T05:03:33.720Z,7.00
2018-04-01T05:06:04.683Z,7.70
2018-04-01T05:08:35.632Z,7.57
2018-04-01T05:11:06.605Z,7.32
2018-04-01T05:13:37.652Z,7.47
2018-04-01T05:16:08.614Z,6.70
2018-04-01T05:18:39.563Z,6.82
2018-04-01T05:21:10.517Z,7.78
2018-04-01T05:23:41.471Z,7.68
2018-04-01T05:26:12.423Z,7.95
2018-04-01T05:28:43.368Z,7.40
2018-04-01T05:31:14.426Z,7.55
2018-04-01T05:33:45.372Z,7.22
2018-04-01T05:36:16.364Z,8.30
2018-04-01T05:38:48.075Z,7.18
2018-04-01T05:41:19.031Z,6.78
2018-04-01T05:43:49.977Z,8.10
2018-04-01T05:46:20.942Z,7.65
2018-04-01T05:48:51.887Z,8.00
2018-04-01T05:51:22.855Z,8.10
2018-04-01T05:53:53.804Z,8.40
2018-04-01T05:56:24.779Z,8.00
2018-04-01T05:58:55.732Z,8.13
2018-04-01T06:01:26.699Z,8.75
2018-04-01T06:03:57.656Z,8.20
2018-04-01T06:06:28.623Z,7.95
2018-04-01T06:09:00.331Z,9.05
2018-04-01T06:11:31.295Z,8.70
2018-04-01T06:14:02.245Z,8.75
2018-04-01T06:16:33.203Z,9.05
2018-04-01T06:19:04.159Z,11.93
2018-04-01T06:21:35.136Z,10.65
2018-04-01T06:24:06.102Z,8.63
2018-04-01T06:26:37.055Z,9.07
2018-04-01T06:29:08.000Z,9.32
2018-04-01T06:31:38.975Z,9.48
2018-04-01T06:34:10.723Z,9.27
2018-04-01T06:36:41.684Z,9.05
2018-04-01T06:39:12.639Z,10.25
2018-04-01T06:41:43.614Z,9.48
2018-04-01T06:44:15.331Z,10.63
2018-04-01T06:49:36.008Z,11.02
2018-04-01T06:52:06.981Z,11.40
2018-04-01T06:54:38.704Z,10.65
2018-04-01T06:57:09.660Z,11.38
2018-04-01T06:59:40.924Z,11.32
2018-04-01T07:02:11.866Z,10.13
2018-04-01T07:04:42.815Z,10.02
2018-04-01T07:07:13.773Z,9.77
2018-04-01T07:09:44.720Z,10.07
2018-04-01T07:12:15.737Z,10.52
2018-04-01T07:15:37.650Z,9.67
2018-04-01T07:18:59.621Z,11.50
2018-04-01T07:22:21.560Z,10.73
2018-04-01T07:25:43.508Z,9.10
2018-04-01T07:29:05.454Z,8.93
2018-04-01T07:32:27.399Z,8.07
2018-04-01T07:35:49.346Z,7.20
2018-04-01T07:39:11.291Z,6.60
2018-04-01T07:42:34.128Z,5.87
2018-04-01T07:45:57.019Z,5.90
2018-04-01T07:49:18.968Z,5.13
2018-04-01T07:52:40.911Z,4.77
2018-04-01T07:56:02.859Z,4.73
2018-04-01T07:59:24.808Z,5.30
2018-04-01T08:02:47.524Z,4.30
2018-04-01T08:06:09.479Z,4.77
2018-04-01T08:09:31.428Z,4.30
2018-04-01T08:12:53.388Z,4.07
2018-04-01T08:16:15.327Z,4.57
2018-04-01T08:19:38.063Z,3.80
2018-04-01T08:23:00.026Z,3.03
2018-04-01T08:26:21.960Z,3.40
2018-04-01T08:29:43.903Z,3.13
2018-04-01T08:33:05.855Z,3.23
2018-04-01T08:36:27.796Z,3.73
2018-04-01T08:39:49.817Z,3.53
2018-04-01T08:43:12.525Z,3.50
2018-04-01T08:46:34.467Z,2.93
2018-04-01T08:49:56.415Z,3.40
2018-04-01T08:53:18.599Z,3.50
2018-04-01T08:56:41.320Z,3.90
2018-04-01T09:00:04.039Z,3.70
2018-04-01T09:03:26.043Z,4.13
2018-04-01T09:06:47.951Z,3.10
2018-04-01T09:10:09.916Z,3.60
2018-04-01T09:13:31.873Z,4.03
2018-04-01T09:16:53.821Z,4.23
2018-04-01T09:20:15.767Z,3.30
2018-04-01T09:23:37.720Z,20.30
2018-04-01T09:27:00.448Z,3.60
2018-04-01T09:30:22.399Z,3.23
2018-04-01T09:33:44.347Z,3.70
2018-04-01T09:37:06.291Z,2.87
2018-04-01T09:40:29.011Z,3.03
2018-04-01T09:43:50.964Z,2.97
2018-04-01T09:47:12.912Z,2.87
2018-04-01T09:50:34.859Z,3.10
2018-04-01T09:53:56.824Z,2.90
2018-04-01T09:57:18.770Z,4.40
2018-04-01T10:01:01.062Z,3.80
2018-04-01T10:04:24.271Z,3.20
2018-04-01T10:07:46.703Z,6.80
2018-04-01T10:11:09.908Z,5.77
2018-04-01T10:14:32.337Z,2.63
2018-04-01T10:17:54.775Z,2.13
2018-04-01T10:21:17.220Z,3.43
2018-04-01T10:24:39.658Z,2.73
2018-04-01T10:28:02.099Z,3.17
2018-04-01T10:31:25.299Z,3.37
2018-04-01T10:34:48.499Z,2.47
2018-04-01T10:38:10.969Z,5.43
2018-04-01T10:41:33.391Z,3.10
2018-04-01T10:44:55.838Z,4.03
2018-04-01T10:48:18.271Z,3.53
2018-04-01T10:51:40.708Z,3.37
2018-04-01T10:55:02.703Z,3.27
2018-04-01T10:58:24.607Z,2.93
2018-04-01T11:01:47.323Z,2.87
2018-04-01T11:05:09.295Z,3.00
2018-04-01T11:08:31.303Z,2.67
2018-04-01T11:11:53.235Z,2.63
2018-04-01T11:15:15.949Z,2.80
2018-04-01T11:18:37.899Z,2.47
2018-04-01T11:21:59.848Z,2.53
2018-04-01T11:25:21.806Z,2.10
2018-04-01T11:28:43.747Z,5.07
2018-04-01T11:32:05.699Z,9.43
2018-04-01T11:35:27.643Z,5.27
2018-04-01T11:38:49.603Z,3.30
2018-04-01T11:42:11.572Z,3.17
2018-04-01T11:45:33.523Z,2.97
2018-04-01T11:48:55.474Z,4.30
2018-04-01T11:52:17.419Z,3.90
2018-04-01T11:55:39.387Z,3.90
2018-04-01T11:59:01.331Z,2.60
2018-04-01T12:02:23.333Z,2.67
2018-04-01T12:05:45.243Z,2.40
2018-04-01T12:09:07.279Z,3.30
2018-04-01T12:12:29.207Z,3.43
2018-04-01T12:15:51.935Z,3.00
2018-04-01T12:19:13.891Z,2.90
2018-04-01T12:22:35.844Z,2.80
2018-04-01T12:25:57.776Z,3.53
2018-04-01T12:29:19.816Z,2.90
2018-04-01T12:32:42.514Z,2.20
2018-04-01T12:36:04.460Z,7.80
2018-04-01T12:39:26.407Z,2.90
2018-04-01T12:42:48.356Z,3.93
2018-04-01T12:46:10.307Z,3.30
2018-04-01T12:49:32.260Z,1.70
2018-04-01T12:52:54.222Z,1.93
2018-04-01T12:56:16.182Z,3.53
2018-04-01T12:59:38.123Z,15.83
2018-04-01T13:03:00.068Z,4.43
2018-04-01T13:06:22.015Z,2.00
2018-04-01T13:09:43.964Z,1.63
2018-04-01T13:13:05.904Z,1.70
2018-04-01T13:16:27.864Z,1.50
2018-04-01T13:19:50.568Z,1.70
2018-04-01T13:23:12.508Z,2.00
2018-04-01T13:26:34.455Z,2.70
2018-04-01T13:29:56.407Z,4.17
2018-04-01T13:33:18.354Z,3.07
2018-04-01T13:36:40.311Z,3.07
2018-04-01T13:40:02.260Z,2.70
2018-04-01T13:43:24.214Z,1.20
2018-04-01T13:46:46.159Z,1.40
2018-04-01T13:50:08.124Z,1.50
2018-04-01T13:53:30.081Z,1.10
2018-04-01T13:56:52.235Z,1.07
2018-04-01T14:00:14.171Z,0.90
2018-04-01T14:03:36.880Z,1.03
2018-04-01T14:06:58.915Z,0.80
2018-04-01T14:10:20.867Z,1.03
2018-04-01T14:13:42.812Z,1.70
2018-04-01T14:17:04.760Z,2.10
2018-04-01T14:20:26.707Z,3.20
2018-04-01T14:23:49.418Z,2.33
2018-04-01T14:27:11.360Z,1.73
2018-04-01T14:30:33.313Z,2.20
2018-04-01T14:33:55.257Z,2.40
2018-04-01T14:37:17.208Z,4.10
2018-04-01T14:40:39.155Z,5.93
2018-04-01T14:44:01.910Z,6.90
2018-04-01T14:47:23.839Z,6.23
2018-04-01T14:50:45.789Z,3.90
2018-04-01T14:54:07.744Z,3.83
2018-04-01T14:57:29.689Z,4.37
2018-04-01T15:00:51.635Z,2.80
2018-04-01T15:04:13.684Z,3.83
2018-04-01T15:07:35.622Z,4.53
2018-04-01T15:10:57.582Z,6.90
2018-04-01T15:14:19.552Z,4.17
2018-04-01T15:17:41.493Z,3.90
2018-04-01T15:21:03.448Z,7.40
2018-04-01T15:24:25.396Z,7.33
2018-04-01T15:27:48.103Z,10.33
2018-04-01T15:31:10.052Z,9.00
2018-04-01T15:34:32.004Z,5.03
2018-04-01T15:37:54.761Z,4.77
2018-04-01T15:41:17.479Z,8.07
2018-04-01T15:44:39.435Z,5.53
2018-04-01T15:48:01.384Z,4.33
2018-04-01T15:51:24.095Z,5.57
2018-04-01T15:54:46.048Z,4.80
2018-04-01T15:58:07.983Z,5.13
2018-04-01T16:01:29.931Z,5.03
2018-04-01T16:04:51.881Z,5.83
2018-04-01T16:08:13.824Z,3.90
2018-04-01T16:11:35.767Z,4.53
2018-04-01T16:14:58.481Z,4.73
2018-04-01T16:18:20.423Z,4.50
2018-04-01T16:21:42.375Z,4.27
2018-04-01T16:25:04.328Z,4.90
2018-04-01T16:28:26.274Z,4.67
2018-04-01T16:31:48.227Z,5.07
2018-04-01T16:35:10.204Z,4.87
2018-04-01T16:38:32.146Z,4.83
2018-04-01T16:41:54.096Z,4.23
2018-04-01T16:45:16.043Z,4.63
2018-04-01T16:48:37.984Z,4.43
2018-04-01T16:51:59.932Z,5.63
2018-04-01T16:55:21.883Z,3.93
2018-04-01T16:58:44.583Z,5.50
2018-04-01T17:02:06.531Z,3.73
2018-04-01T17:05:28.479Z,4.10
2018-04-01T17:08:50.431Z,4.57
2018-04-01T17:12:12.385Z,4.37
2018-04-01T17:15:34.347Z,5.20
2018-04-01T17:18:56.292Z,5.03
2018-04-01T17:22:18.236Z,5.10
2018-04-01T17:25:40.189Z,5.63
2018-04-01T17:29:02.132Z,5.33
2018-04-01T17:32:24.124Z,5.47
2018-04-01T17:35:46.048Z,5.10
2018-04-01T17:39:08.756Z,5.00
2018-04-01T17:42:30.711Z,4.50
2018-04-01T17:45:53.549Z,4.10
2018-04-01T17:49:15.484Z,4.20
2018-04-01T17:52:37.452Z,4.30
2018-04-01T17:55:59.518Z,4.77
2018-04-01T17:59:21.567Z,4.63
2018-04-01T18:02:44.282Z,4.50
2018-04-01T18:06:06.248Z,7.87
2018-04-01T18:09:28.187Z,5.27
2018-04-01T18:12:50.144Z,6.87
2018-04-01T18:16:12.084Z,6.27
2018-04-01T18:19:34.139Z,10.10
2018-04-01T18:22:56.060Z,6.87
2018-04-01T18:26:18.017Z,6.13
2018-04-01T18:29:39.967Z,4.47
2018-04-01T18:33:02.680Z,5.13
2018-04-01T18:36:24.627Z,4.90
2018-04-01T18:39:46.676Z,4.33
2018-04-01T18:43:08.634Z,4.17
2018-04-01T18:46:30.587Z,4.37
2018-04-01T18:49:52.632Z,5.80
2018-04-01T18:53:14.610Z,4.27
2018-04-01T18:56:36.615Z,4.40
2018-04-01T18:59:58.603Z,4.90
2018-04-01T19:03:20.563Z,6.93
2018-04-01T19:06:42.580Z,5.27
2018-04-01T19:10:04.567Z,6.03
2018-04-01T19:13:26.517Z,4.43
2018-04-01T19:17:08.703Z,5.10
2018-04-01T19:20:31.208Z,6.00
2018-04-01T19:23:53.655Z,5.03
2018-04-01T19:27:16.111Z,4.93
2018-04-01T19:30:38.577Z,5.53
2018-04-01T19:34:01.094Z,4.53
2018-04-01T19:37:23.540Z,6.00
2018-04-01T19:40:45.986Z,4.43
2018-04-01T19:44:08.404Z,5.07
2018-04-01T19:47:31.469Z,5.37
2018-04-01T19:50:53.392Z,5.10
2018-04-01T19:54:15.828Z,5.80
2018-04-01T19:57:38.263Z,5.10
2018-04-01T20:01:00.707Z,7.30
2018-04-01T20:04:23.143Z,5.23
2018-04-01T20:07:45.591Z,4.93
2018-04-01T20:11:08.032Z,7.07
2018-04-01T20:14:31.248Z,6.50
2018-04-01T20:17:53.680Z,6.03
2018-04-01T20:21:16.895Z,6.13
2018-04-01T20:24:39.335Z,4.57
2018-04-01T20:28:01.788Z,6.43
2018-04-01T20:31:24.991Z,4.70
2018-04-01T20:34:47.419Z,6.03
2018-04-01T20:38:09.868Z,4.97
2018-04-01T20:41:32.350Z,5.13
2018-04-01T20:44:54.767Z,5.93
2018-04-01T20:48:17.195Z,5.77
2018-04-01T20:51:40.404Z,6.70
2018-04-01T20:55:02.859Z,5.60
2018-04-01T20:58:26.057Z,7.07
2018-04-01T21:01:48.663Z,5.80
2018-04-01T21:05:11.091Z,6.57
2018-04-01T21:08:33.544Z,5.63
2018-04-01T21:11:56.745Z,5.40
2018-04-01T21:15:19.180Z,5.50
2018-04-01T21:18:42.388Z,5.20
2018-04-01T21:22:04.883Z,5.07
2018-04-01T21:25:27.311Z,5.30
2018-04-01T21:28:49.908Z,7.10
2018-04-01T21:32:12.352Z,5.20
2018-04-01T21:35:35.328Z,5.50
2018-04-01T21:38:57.819Z,5.57
2018-04-01T21:42:20.260Z,6.80
2018-04-01T21:45:42.691Z,7.13
2018-04-01T21:49:05.140Z,6.67
2018-04-01T21:52:27.679Z,6.50
2018-04-01T21:55:50.879Z,6.83
2018-04-01T21:59:13.316Z,6.07
2018-04-01T22:02:35.759Z,7.17
2018-04-01T22:05:58.952Z,7.47
2018-04-01T22:09:21.978Z,6.67
2018-04-01T22:12:44.408Z,6.10
2018-04-01T22:16:06.844Z,5.40
2018-04-01T22:19:30.049Z,6.37
2018-04-01T22:23:04.311Z,6.97
2018-04-01T22:26:26.743Z,6.13
2018-04-01T22:29:49.239Z,5.63
2018-04-01T22:33:11.704Z,6.90
2018-04-01T22:36:34.157Z,7.40
2018-04-01T22:39:56.583Z,7.63
2018-04-01T22:43:19.820Z,6.63
2018-04-01T22:46:43.029Z,6.60
2018-04-01T22:50:05.464Z,6.60
2018-04-01T22:53:27.910Z,6.43
2018-04-01T22:56:50.385Z,6.33
2018-04-01T23:00:12.815Z,6.70
2018-04-01T23:03:36.031Z,6.97
2018-04-01T23:06:58.469Z,7.10
2018-04-01T23:10:22.150Z,6.47
2018-04-01T23:13:44.517Z,6.63
2018-04-01T23:17:07.717Z,6.80
2018-04-01T23:20:30.211Z,10.03
2018-04-01T23:23:52.675Z,7.20
2018-04-01T23:27:15.145Z,7.30
2018-04-01T23:30:37.633Z,7.83
2018-04-01T23:34:00.052Z,6.93
2018-04-01T23:37:22.500Z,6.97
2018-04-01T23:40:44.999Z,7.73
2018-04-01T23:44:07.469Z,8.73
2018-04-01T23:47:29.904Z,9.00
2018-04-01T23:50:52.391Z,8.43
2018-04-01T23:54:14.860Z,6.53
2018-04-01T23:57:37.359Z,6.93
